Time;durP1;ratioP1;P1;durP2;ratioP2;P2;SDS_P1;SDS_P2;PMS_P1;PMS_P2;Temp;Humidity;BMP_temperature;BMP_pressure;BME280_temperature;BME280_humidity;BME280_pressure;Samples;Min_cycle;Max_cycle;Signal;HPM_P1;HPM_P2
2023/09/12 00:00:48;;;;;;;50.25;41.42;;;19.40;99.90;;;;;;6242292;23;20023;-85
2023/09/12 00:03:14;;;;;;;51.85;44.22;;;19.40;99.90;;;;;;6241815;23;20023;-84
2023/09/12 00:05:40;;;;;;;54.47;44.67;;;19.40;99.90;;;;;;6241554;23;20024;-85
2023/09/12 00:08:06;;;;;;;54.88;45.80;;;19.30;99.90;;;;;;6242479;23;20028;-85
2023/09/12 00:10:32;;;;;;;54.55;47.58;;;19.30;99.90;;;;;;6240883;23;20016;-84
2023/09/12 00:13:02;;;;;;;61.15;45.40;;;19.30;99.90;;;;;;6215922;23;20351;-84
2023/09/12 00:15:28;;;;;;;56.67;46.63;;;19.30;99.90;;;;;;6267647;22;20332;-85
2023/09/12 00:17:53;;;;;;;58.60;45.75;;;19.30;99.90;;;;;;6242722;23;20012;-85
2023/09/12 00:20:22;;;;;;;60.60;47.58;;;19.30;99.90;;;;;;6242567;23;20023;-84
2023/09/12 00:22:48;;;;;;;59.30;49.88;;;19.30;99.90;;;;;;6244616;23;20012;-85
2023/09/12 00:25:14;;;;;;;57.22;45.55;;;19.30;99.90;;;;;;6246594;23;20012;-85
2023/09/12 00:27:39;;;;;;;60.13;46.70;;;19.30;99.90;;;;;;6220049;23;20527;-85
2023/09/12 00:30:06;;;;;;;61.63;48.80;;;19.30;99.90;;;;;;6249521;23;20431;-85
2023/09/12 00:32:39;;;;;;;67.82;50.00;;;19.30;99.90;;;;;;6223280;23;20043;-85
2023/09/12 00:35:05;;;;;;;;;;;19.30;99.90;;;;;;6222533;23;20019;-85
2023/09/12 00:37:30;;;;;;;64.05;46.10;;;19.30;99.90;;;;;;6247581;22;19915;-85
2023/09/12 00:40:07;;;;;;;55.45;48.22;;;19.20;99.90;;;;;;6245488;23;20027;-84
2023/09/12 00:42:32;;;;;;;63.65;47.95;;;19.20;99.90;;;;;;6219168;23;20012;-85
2023/09/12 00:44:58;;;;;;;57.20;44.72;;;19.10;99.90;;;;;;6243863;23;20451;-85
2023/09/12 00:47:25;;;;;;;65.43;53.95;;;19.10;99.90;;;;;;6244200;23;20004;-85
2023/09/12 00:49:52;;;;;;;64.22;47.92;;;19.10;99.90;;;;;;6245904;22;20386;-85
2023/09/12 00:52:20;;;;;;;62.08;44.92;;;19.10;99.90;;;;;;6218426;23;20019;-85
2023/09/12 00:54:46;;;;;;;58.92;43.17;;;19.10;99.90;;;;;;6219597;23;20210;-85
2023/09/12 00:57:13;;;;;;;62.80;46.53;;;19.00;99.90;;;;;;6219059;23;20375;-85
2023/09/12 00:59:38;;;;;;;65.60;53.25;;;19.10;99.90;;;;;;6246555;22;20431;-84
2023/09/12 01:02:05;;;;;;;54.97;42.92;;;19.00;99.90;;;;;;6245303;22;20019;-85
2023/09/12 01:04:32;;;;;;;68.57;54.67;;;19.00;99.90;;;;;;6242611;23;20019;-84
2023/09/12 01:06:58;;;;;;;60.28;44.83;;;19.00;99.90;;;;;;6217605;23;20090;-85
2023/09/12 01:09:24;;;;;;;58.28;43.35;;;19.00;99.90;;;;;;6217739;23;20043;-85
2023/09/12 01:11:50;;;;;;;64.43;51.28;;;18.90;99.90;;;;;;6244574;23;20019;-85
2023/09/12 01:14:16;;;;;;;50.22;42.20;;;18.90;99.90;;;;;;6245151;23;20043;-85
2023/09/12 01:16:42;;;;;;;57.83;42.45;;;18.80;99.90;;;;;;6218122;23;20046;-84
2023/09/12 01:19:11;;;;;;;70.63;49.00;;;18.80;99.90;;;;;;6244462;23;20019;-84
2023/09/12 01:22:01;;;;;;;63.53;45.08;;;18.80;99.90;;;;;;6243255;23;20012;-85
2023/09/12 01:24:55;;;;;;;60.13;44.13;;;18.80;99.90;;;;;;6217387;23;20012;-85
2023/09/12 01:27:30;;;;;;;53.17;43.97;;;18.80;99.90;;;;;;6233804;23;20044;-85
2023/09/12 01:30:04;;;;;;;67.60;51.53;;;18.90;99.90;;;;;;6248556;22;20012;-85
2023/09/12 01:32:35;;;;;;;66.18;51.65;;;18.90;99.90;;;;;;6220793;23;20016;-85
2023/09/12 01:35:03;;;;;;;69.35;54.75;;;18.90;99.90;;;;;;6218143;23;20050;-85
2023/09/12 01:37:32;;;;;;;61.65;46.97;;;18.90;99.90;;;;;;6243181;23;20081;-84
2023/09/12 01:39:58;;;;;;;62.60;46.40;;;18.80;99.90;;;;;;6217421;23;20018;-84
2023/09/12 01:42:26;;;;;;;58.38;43.40;;;18.80;99.90;;;;;;6244937;22;20027;-85
2023/09/12 01:44:56;;;;;;;60.95;48.60;;;18.70;99.90;;;;;;6269420;22;20016;-84
2023/09/12 01:47:23;;;;;;;62.20;48.97;;;18.70;99.90;;;;;;6218175;23;20024;-84
2023/09/12 01:49:53;;;;;;;59.63;46.72;;;18.60;99.90;;;;;;6243248;23;20012;-85
2023/09/12 01:52:21;;;;;;;58.95;46.15;;;18.60;99.90;;;;;;6217687;23;20047;-85
2023/09/12 01:54:48;;;;;;;70.50;53.42;;;18.60;99.90;;;;;;6244036;22;20066;-85
2023/09/12 01:57:20;;;;;;;67.38;51.28;;;18.60;99.90;;;;;;6244738;22;20012;-85
2023/09/12 01:59:49;;;;;;;58.38;44.65;;;18.60;99.90;;;;;;6267970;22;20333;-85
2023/09/12 02:02:18;;;;;;;73.47;54.72;;;18.70;99.90;;;;;;6242690;23;20054;-85
2023/09/12 02:05:07;;;;;;;60.05;44.38;;;18.60;99.90;;;;;;6242078;23;20020;-85
2023/09/12 02:07:37;;;;;;;64.90;49.03;;;18.60;99.90;;;;;;6216845;23;20012;-85
2023/09/12 02:10:04;;;;;;;59.42;45.53;;;18.60;99.90;;;;;;6218046;23;20016;-84
2023/09/12 02:12:31;;;;;;;72.60;49.08;;;18.60;99.90;;;;;;6217972;23;20066;-85
2023/09/12 02:14:59;;;;;;;79.28;54.67;;;18.60;99.90;;;;;;6243412;23;20012;-85
2023/09/12 02:17:25;;;;;;;73.60;50.15;;;18.60;99.90;;;;;;6243618;23;20008;-85
2023/09/12 02:19:51;;;;;;;67.20;45.80;;;18.60;99.90;;;;;;6242462;23;20087;-84
2023/09/12 02:22:17;;;;;;;67.32;51.38;;;18.60;99.90;;;;;;6215719;23;20015;-84
2023/09/12 02:24:42;;;;;;;83.60;56.58;;;18.60;99.90;;;;;;6216076;23;20016;-85
2023/09/12 02:27:08;;;;;;;63.85;42.92;;;18.60;99.90;;;;;;6216137;23;20050;-85
2023/09/12 02:29:39;;;;;;;57.95;41.33;;;18.60;99.90;;;;;;6215256;23;20012;-85
2023/09/12 02:32:05;;;;;;;66.95;44.28;;;18.60;99.90;;;;;;6216394;23;20023;-85
2023/09/12 02:34:35;;;;;;;76.95;60.17;;;18.60;99.90;;;;;;6216290;23;20016;-85
2023/09/12 02:37:01;;;;;;;73.15;50.47;;;18.60;99.90;;;;;;6215928;23;20015;-85
2023/09/12 02:39:27;;;;;;;64.43;46.42;;;18.60;99.90;;;;;;6242166;23;20091;-84
2023/09/12 02:41:52;;;;;;;63.13;44.55;;;18.60;99.90;;;;;;6242455;23;20016;-85
2023/09/12 02:44:18;;;;;;;72.03;45.67;;;18.60;99.90;;;;;;6243413;23;20012;-85
2023/09/12 02:46:44;;;;;;;63.60;46.35;;;18.60;99.90;;;;;;6217006;23;20447;-84
2023/09/12 02:49:10;;;;;;;73.72;47.85;;;18.60;99.90;;;;;;6245013;22;20227;-85
2023/09/12 02:51:45;;;;;;;56.55;42.72;;;18.70;99.90;;;;;;6216562;23;20021;-84
2023/09/12 02:54:11;;;;;;;68.65;50.08;;;18.70;99.90;;;;;;6217485;23;20016;-85
2023/09/12 02:56:45;;;;;;;76.50;48.03;;;18.70;99.90;;;;;;6242605;23;20012;-85
2023/09/12 02:59:11;;;;;;;52.85;39.10;;;18.50;99.90;;;;;;6242276;23;20015;-85
2023/09/12 03:01:40;;;;;;;53.80;41.22;;;18.70;99.90;;;;;;6217643;23;20016;-84
2023/09/12 03:04:06;;;;;;;57.53;42.97;;;18.70;99.90;;;;;;6242380;23;20087;-84
2023/09/12 03:06:35;;;;;;;55.90;40.42;;;18.70;99.90;;;;;;6268005;22;20470;-85
2023/09/12 03:09:01;;;;;;;66.13;49.45;;;18.70;99.90;;;;;;6217944;23;20131;-85
2023/09/12 03:11:27;;;;;;;74.38;46.45;;;18.70;99.90;;;;;;6242984;22;20012;-84
2023/09/12 03:13:53;;;;;;;62.72;43.55;;;18.70;99.90;;;;;;6268920;22;20325;-85
2023/09/12 03:16:19;;;;;;;66.38;43.60;;;18.60;99.90;;;;;;6217841;23;20012;-85
2023/09/12 03:18:44;;;;;;;69.15;48.25;;;18.60;99.90;;;;;;6244616;22;20038;-85
2023/09/12 03:21:11;;;;;;;62.50;45.47;;;18.50;99.90;;;;;;6268355;22;20016;-85
2023/09/12 03:23:36;;;;;;;58.28;41.67;;;18.80;99.90;;;;;;6242545;23;20103;-85
2023/09/12 03:26:06;;;;;;;76.22;49.28;;;18.50;99.90;;;;;;6217524;23;20016;-85
2023/09/12 03:28:35;;;;;;;66.45;45.58;;;18.50;99.90;;;;;;6244694;22;20335;-85
2023/09/12 03:31:07;;;;;;;56.90;46.53;;;18.40;99.90;;;;;;6242356;23;20012;-85
2023/09/12 03:33:33;;;;;;;62.38;45.92;;;18.40;99.90;;;;;;6242635;23;20457;-84
2023/09/12 03:35:58;;;;;;;67.38;48.00;;;18.40;99.90;;;;;;6242260;23;20013;-85
2023/09/12 03:38:24;;;;;;;65.22;44.97;;;18.40;99.90;;;;;;6216956;23;20059;-85
2023/09/12 03:40:50;;;;;;;52.67;41.58;;;18.40;99.90;;;;;;6244615;22;20162;-85
2023/09/12 03:43:16;;;;;;;65.47;44.83;;;18.50;99.90;;;;;;6217221;23;20016;-84
2023/09/12 03:45:41;;;;;;;62.85;41.90;;;18.50;99.90;;;;;;6242493;23;20016;-84
2023/09/12 03:48:07;;;;;;;67.78;43.97;;;18.50;99.90;;;;;;6242430;23;20023;-85
2023/09/12 03:50:36;;;;;;;64.20;44.72;;;18.40;99.90;;;;;;6242178;23;20018;-84
2023/09/12 03:53:05;;;;;;;66.90;47.30;;;18.40;99.90;;;;;;6242580;23;20019;-84
2023/09/12 03:55:31;;;;;;;64.72;46.78;;;18.40;99.90;;;;;;6216808;23;20016;-85
2023/09/12 03:57:57;;;;;;;67.63;45.65;;;18.40;99.90;;;;;;6244906;23;20079;-85
2023/09/12 04:00:23;;;;;;;66.13;46.38;;;18.20;99.90;;;;;;6244261;23;20342;-85
2023/09/12 04:02:49;;;;;;;65.25;49.20;;;18.30;99.90;;;;;;6218586;23;20085;-84
2023/09/12 04:05:15;;;;;;;74.10;53.80;;;18.20;99.90;;;;;;6247777;23;20031;-85
2023/09/12 04:07:41;;;;;;;57.92;41.63;;;18.20;99.90;;;;;;6246880;23;20024;-83
2023/09/12 04:10:07;;;;;;;66.30;43.35;;;18.10;99.90;;;;;;6245016;23;20012;-84
2023/09/12 04:12:32;;;;;;;60.58;47.85;;;18.00;99.90;;;;;;6246574;22;20030;-85
2023/09/12 04:14:58;;;;;;;74.05;49.33;;;17.70;99.90;;;;;;6244450;23;20016;-85
2023/09/12 04:17:24;;;;;;;60.38;43.70;;;17.90;99.90;;;;;;6244448;23;20106;-85
2023/09/12 04:19:50;;;;;;;55.05;43.47;;;17.80;99.90;;;;;;6220546;23;20274;-85
2023/09/12 04:22:15;;;;;;;58.95;43.35;;;17.70;99.90;;;;;;6245129;23;20055;-85
2023/09/12 04:24:41;;;;;;;64.22;43.72;;;17.90;99.90;;;;;;6246569;23;20023;-85
2023/09/12 04:27:07;;;;;;;64.32;49.88;;;17.70;99.90;;;;;;6247911;23;20012;-85
2023/09/12 04:29:36;;;;;;;58.50;45.63;;;17.70;99.90;;;;;;6219698;23;20466;-85
2023/09/12 04:32:08;;;;;;;78.43;55.10;;;17.60;99.90;;;;;;6247419;22;20024;-85
2023/09/12 04:34:35;;;;;;;58.40;40.00;;;17.60;99.90;;;;;;6219916;23;20051;-87
2023/09/12 04:37:02;;;;;;;66.35;45.35;;;17.50;99.90;;;;;;6247379;23;20044;-87
2023/09/12 04:39:28;;;;;;;55.47;43.08;;;17.50;99.90;;;;;;6272656;22;20016;-87
2023/09/12 04:41:54;;;;;;;67.88;43.38;;;17.50;99.90;;;;;;6223831;23;20023;-86
2023/09/12 04:44:20;;;;;;;56.90;42.72;;;17.40;99.90;;;;;;6221669;23;20012;-87
2023/09/12 04:46:48;;;;;;;61.25;48.22;;;17.50;99.90;;;;;;6217665;23;20269;-86
2023/09/12 04:49:14;;;;;;;59.03;48.88;;;17.40;99.90;;;;;;6220114;23;20343;-87
2023/09/12 04:51:40;;;;;;;61.80;42.47;;;17.30;99.90;;;;;;6220567;23;20039;-87
2023/09/12 04:54:09;;;;;;;64.43;47.95;;;17.30;99.90;;;;;;6219202;23;20008;-86
2023/09/12 04:56:35;;;;;;;53.25;42.53;;;17.20;99.90;;;;;;6243334;23;20090;-84
2023/09/12 04:59:07;;;;;;;55.58;40.40;;;17.40;99.90;;;;;;6240400;23;20079;-86
2023/09/12 05:01:35;;;;;;;61.00;48.60;;;17.20;99.90;;;;;;6216941;23;20023;-86
2023/09/12 05:04:02;;;;;;;58.20;39.95;;;17.10;99.90;;;;;;6217355;23;20415;-86
2023/09/12 05:06:28;;;;;;;63.20;50.30;;;16.90;99.90;;;;;;6244827;23;20043;-85
2023/09/12 05:08:54;;;;;;;88.65;53.65;;;17.10;99.90;;;;;;6219930;23;20047;-86
2023/09/12 05:11:23;;;;;;;79.10;50.28;;;17.20;99.90;;;;;;6219256;23;20012;-86
2023/09/12 05:13:49;;;;;;;72.47;44.80;;;17.20;99.90;;;;;;6241776;23;20401;-85
2023/09/12 05:16:15;;;;;;;87.05;48.42;;;17.30;99.90;;;;;;6240476;23;20015;-85
2023/09/12 05:18:41;;;;;;;68.68;45.83;;;17.40;99.90;;;;;;6242927;23;20008;-85
2023/09/12 05:21:07;;;;;;;76.78;48.95;;;17.40;99.90;;;;;;6215892;23;20451;-85
2023/09/12 05:23:35;;;;;;;93.90;51.65;;;17.50;99.90;;;;;;6216040;23;20012;-86
2023/09/12 05:26:02;;;;;;;195.25;64.03;;;17.60;99.90;;;;;;6240950;23;20162;-86
2023/09/12 05:28:28;;;;;;;104.80;55.78;;;17.60;99.90;;;;;;6246065;22;20514;-86
2023/09/12 05:30:54;;;;;;;106.20;54.20;;;17.60;99.90;;;;;;6218075;23;20078;-86
2023/09/12 05:33:20;;;;;;;125.15;55.53;;;17.70;99.90;;;;;;6218405;23;20012;-87
2023/09/12 05:35:48;;;;;;;121.97;57.30;;;17.70;99.90;;;;;;6218682;23;20009;-87
2023/09/12 05:38:14;;;;;;;91.63;51.42;;;17.80;99.90;;;;;;6243789;23;20004;-86
2023/09/12 05:40:40;;;;;;;131.73;57.60;;;17.80;99.90;;;;;;6243894;23;20231;-86
2023/09/12 05:43:06;;;;;;;141.80;59.17;;;17.90;99.90;;;;;;6217919;23;20027;-86
2023/09/12 05:45:34;;;;;;;117.63;54.70;;;17.90;99.90;;;;;;6242782;23;20019;-86
2023/09/12 05:48:00;;;;;;;111.82;56.05;;;18.00;99.90;;;;;;6218058;23;20275;-87
2023/09/12 05:50:26;;;;;;;120.30;54.72;;;18.00;99.90;;;;;;6243457;23;20023;-86
2023/09/12 05:52:52;;;;;;;130.10;56.70;;;18.00;99.90;;;;;;6243445;23;20008;-86
2023/09/12 05:55:17;;;;;;;138.02;56.33;;;18.10;99.90;;;;;;6242173;23;20012;-86
2023/09/12 05:57:43;;;;;;;120.40;54.30;;;18.10;99.90;;;;;;6242597;23;20015;-86
2023/09/12 06:00:11;;;;;;;104.55;54.97;;;18.10;99.90;;;;;;6217907;23;20386;-86
2023/09/12 06:02:42;;;;;;;98.43;50.53;;;18.20;99.90;;;;;;6242612;23;20016;-86
2023/09/12 06:05:08;;;;;;;80.45;45.80;;;18.20;99.90;;;;;;6268266;22;20047;-87
2023/09/12 06:07:35;;;;;;;92.47;52.55;;;18.30;99.90;;;;;;6217513;23;20068;-86
2023/09/12 06:10:10;;;;;;;125.15;55.10;;;18.30;99.90;;;;;;6242210;23;20062;-86
2023/09/12 06:12:38;;;;;;;101.80;54.75;;;18.40;99.90;;;;;;6267760;22;20447;-86
2023/09/12 06:15:05;;;;;;;100.18;51.90;;;18.40;99.90;;;;;;6242412;23;20012;-86
2023/09/12 06:17:34;;;;;;;119.20;54.92;;;18.50;99.90;;;;;;6217389;23;20092;-86
2023/09/12 06:20:00;;;;;;;118.15;55.50;;;18.60;99.90;;;;;;6217486;23;20016;-86
2023/09/12 06:22:26;;;;;;;117.20;55.90;;;18.80;99.90;;;;;;6243934;22;20044;-86
2023/09/12 06:24:53;;;;;;;102.88;52.70;;;18.80;99.90;;;;;;6217548;23;20083;-87
2023/09/12 06:27:19;;;;;;;94.35;48.50;;;18.90;99.90;;;;;;6243226;23;20012;-87
2023/09/12 06:29:48;;;;;;;102.60;51.90;;;18.60;99.90;;;;;;6242394;23;20082;-86
2023/09/12 06:32:15;;;;;;;102.65;51.05;;;18.80;99.90;;;;;;6243257;23;20040;-87
2023/09/12 06:34:42;;;;;;;111.40;52.95;;;18.90;99.90;;;;;;6244516;22;20023;-86
2023/09/12 06:37:09;;;;;;;92.95;50.33;;;18.90;99.90;;;;;;6242569;23;20012;-86
2023/09/12 06:39:34;;;;;;;81.72;46.33;;;18.80;99.90;;;;;;6268571;22;20012;-86
2023/09/12 06:42:00;;;;;;;102.57;49.95;;;18.80;99.90;;;;;;6242988;23;20095;-85
2023/09/12 06:44:26;;;;;;;92.03;49.75;;;18.80;99.90;;;;;;6243149;23;20089;-86
2023/09/12 06:46:52;;;;;;;102.88;51.10;;;18.90;99.90;;;;;;6242757;23;20012;-86
2023/09/12 06:49:21;;;;;;;94.95;48.97;;;18.90;99.90;;;;;;6243132;23;20051;-87
2023/09/12 06:51:46;;;;;;;86.07;46.25;;;18.90;99.90;;;;;;6244352;23;20493;-86
2023/09/12 06:54:15;;;;;;;83.13;47.10;;;19.00;99.90;;;;;;6245072;22;20323;-86
2023/09/12 06:56:42;;;;;;;81.25;47.65;;;19.00;99.90;;;;;;6243012;23;20447;-86
2023/09/12 06:59:08;;;;;;;84.55;48.97;;;19.10;99.90;;;;;;6216880;23;20058;-86
2023/09/12 07:01:40;;;;;;;81.03;47.10;;;19.00;99.90;;;;;;6216574;23;20015;-86
2023/09/12 07:04:06;;;;;;;69.35;42.72;;;19.30;99.90;;;;;;6216391;23;20023;-85
2023/09/12 07:06:34;;;;;;;78.75;45.13;;;19.30;99.90;;;;;;6242020;23;20378;-85
2023/09/12 07:09:00;;;;;;;74.43;46.53;;;19.40;99.90;;;;;;6243406;22;20008;-85
2023/09/12 07:11:26;;;;;;;79.63;47.78;;;19.30;99.90;;;;;;6243161;22;20066;-85
2023/09/12 07:13:52;;;;;;;72.10;45.83;;;19.40;99.90;;;;;;6243277;22;20012;-84
2023/09/12 07:16:18;;;;;;;67.28;41.70;;;19.40;99.90;;;;;;6243233;22;20012;-84
2023/09/12 07:18:43;;;;;;;78.90;46.13;;;19.40;99.90;;;;;;6216777;23;20156;-85
2023/09/12 07:21:11;;;;;;;76.97;45.55;;;19.50;99.90;;;;;;6243614;22;20009;-85
2023/09/12 07:23:37;;;;;;;64.93;41.92;;;19.50;99.90;;;;;;6215384;23;20078;-85
2023/09/12 07:26:03;;;;;;;69.30;44.10;;;19.50;99.90;;;;;;6241894;23;20023;-84
2023/09/12 07:28:30;;;;;;;71.35;45.42;;;19.50;99.90;;;;;;6215304;23;20012;-84
2023/09/12 07:30:56;;;;;;;64.90;42.97;;;19.50;99.90;;;;;;6215941;23;20022;-85
2023/09/12 07:33:22;;;;;;;68.28;43.70;;;19.50;99.90;;;;;;6241523;23;20052;-84
2023/09/12 07:35:51;;;;;;;59.55;41.05;;;19.50;99.90;;;;;;6240924;23;20324;-85
2023/09/12 07:38:18;;;;;;;67.95;43.50;;;19.40;99.90;;;;;;6268414;22;20019;-84
2023/09/12 07:40:43;;;;;;;65.75;41.67;;;19.40;99.90;;;;;;6245189;22;20012;-84
2023/09/12 07:43:10;;;;;;;58.30;39.47;;;19.40;99.90;;;;;;6218161;23;20102;-85
2023/09/12 07:45:39;;;;;;;53.47;39.60;;;19.30;99.90;;;;;;6269019;22;20043;-84
2023/09/12 07:48:11;;;;;;;60.63;42.88;;;19.40;99.90;;;;;;6245152;23;20040;-84
2023/09/12 07:50:40;;;;;;;60.13;41.13;;;19.50;99.90;;;;;;6243095;22;20263;-85
2023/09/12 07:53:06;;;;;;;64.25;43.28;;;19.60;99.90;;;;;;6218013;23;20031;-84
2023/09/12 07:55:46;;;;;;;64.57;43.10;;;19.70;99.90;;;;;;6217914;23;20485;-85
2023/09/12 07:58:18;;;;;;;61.20;42.13;;;19.80;99.90;;;;;;6243309;23;20091;-83
2023/09/12 08:00:43;;;;;;;64.60;44.67;;;19.90;99.90;;;;;;6243689;23;20016;-85
2023/09/12 08:03:09;;;;;;;59.55;41.42;;;20.00;99.90;;;;;;6243563;23;20114;-84
2023/09/12 08:05:35;;;;;;;55.47;39.25;;;20.10;99.90;;;;;;6217151;23;20447;-84
2023/09/12 08:08:01;;;;;;;60.38;42.45;;;20.10;99.90;;;;;;6217233;23;20023;-84
2023/09/12 08:10:27;;;;;;;58.20;42.50;;;20.20;99.90;;;;;;6216824;23;20016;-84
2023/09/12 08:12:53;;;;;;;50.95;38.55;;;20.30;99.90;;;;;;6268433;22;20010;-84
2023/09/12 08:15:19;;;;;;;61.10;42.97;;;20.20;99.90;;;;;;6243007;23;20008;-84
2023/09/12 08:17:51;;;;;;;57.80;42.05;;;20.40;99.90;;;;;;6217181;23;20012;-84
2023/09/12 08:20:20;;;;;;;60.95;43.35;;;20.40;99.90;;;;;;6243144;23;20070;-84
2023/09/12 08:22:48;;;;;;;58.90;40.25;;;20.40;99.90;;;;;;6217374;23;20541;-84
2023/09/12 08:25:14;;;;;;;58.42;43.85;;;20.40;99.90;;;;;;6242134;23;20012;-85
2023/09/12 08:27:42;;;;;;;59.80;43.10;;;20.40;99.90;;;;;;6242039;23;20055;-84
2023/09/12 08:30:08;;;;;;;61.15;42.78;;;20.50;99.90;;;;;;6217136;23;20566;-85
2023/09/12 08:32:39;;;;;;;54.00;39.58;;;20.60;99.90;;;;;;6217455;23;20362;-84
2023/09/12 08:35:06;;;;;;;62.10;43.03;;;20.50;99.90;;;;;;6242415;23;20012;-85
2023/09/12 08:37:34;;;;;;;67.82;42.28;;;20.50;99.90;;;;;;6242593;23;20020;-84
2023/09/12 08:40:01;;;;;;;59.75;40.45;;;20.60;99.90;;;;;;6241317;23;20012;-84
2023/09/12 08:42:28;;;;;;;66.40;43.10;;;20.50;99.90;;;;;;6267633;22;20039;-84
2023/09/12 08:44:57;;;;;;;56.63;38.97;;;20.50;99.90;;;;;;6217181;23;20044;-84
2023/09/12 08:47:24;;;;;;;62.85;45.08;;;20.50;99.90;;;;;;6243829;22;20012;-85
2023/09/12 08:49:50;;;;;;;58.28;40.60;;;20.50;99.90;;;;;;6216494;23;20042;-84
2023/09/12 08:52:16;;;;;;;53.53;41.00;;;20.50;99.90;;;;;;6267799;22;20016;-84
2023/09/12 08:54:42;;;;;;;61.75;43.10;;;20.50;99.90;;;;;;6266814;22;20166;-85
2023/09/12 08:57:10;;;;;;;58.97;41.80;;;20.50;99.90;;;;;;6217368;23;20026;-85
2023/09/12 08:59:38;;;;;;;60.17;41.58;;;20.50;99.90;;;;;;6244507;22;20012;-85
2023/09/12 09:02:09;;;;;;;64.68;44.58;;;20.50;99.90;;;;;;6242347;23;20012;-84
2023/09/12 09:04:36;;;;;;;58.13;40.30;;;20.60;99.90;;;;;;6217077;23;20048;-85
2023/09/12 09:07:06;;;;;;;57.15;42.55;;;20.70;99.90;;;;;;6244230;22;20012;-85
2023/09/12 09:09:35;;;;;;;61.60;43.80;;;20.80;99.90;;;;;;6243354;22;20020;-85
2023/09/12 09:12:01;;;;;;;59.72;44.10;;;21.10;99.90;;;;;;6267930;22;20355;-84
2023/09/12 09:14:30;;;;;;;54.92;40.30;;;21.20;99.90;;;;;;6217914;23;20087;-84
2023/09/12 09:16:56;;;;;;;52.88;39.90;;;21.60;99.90;;;;;;6244275;22;20394;-84
2023/09/12 09:19:22;;;;;;;56.30;39.67;;;21.80;99.90;;;;;;6244677;22;20362;-85
2023/09/12 09:21:48;;;;;;;61.78;42.20;;;22.10;99.90;;;;;;6217366;23;20016;-84
2023/09/12 09:24:17;;;;;;;49.67;37.13;;;22.20;99.90;;;;;;6243490;23;20147;-84
2023/09/12 09:26:51;;;;;;;45.80;34.10;;;22.30;99.90;;;;;;6243993;23;20012;-84
2023/09/12 09:29:19;;;;;;;44.00;34.10;;;22.50;99.90;;;;;;6243186;23;20017;-85
2023/09/12 09:31:50;;;;;;;39.53;30.38;;;22.70;99.90;;;;;;6243371;23;20203;-85
2023/09/12 09:34:18;;;;;;;43.17;33.70;;;22.80;99.90;;;;;;6243758;23;20457;-85
2023/09/12 09:36:47;;;;;;;48.13;36.28;;;22.90;99.90;;;;;;6244845;22;20012;-85
2023/09/12 09:39:13;;;;;;;45.70;35.10;;;23.00;99.90;;;;;;6217174;23;20012;-84
2023/09/12 09:41:39;;;;;;;47.08;35.38;;;23.00;99.90;;;;;;6242748;23;20067;-84
2023/09/12 09:44:09;;;;;;;48.95;35.63;;;22.90;99.90;;;;;;6268598;22;20020;-84
2023/09/12 09:46:36;;;;;;;45.30;36.67;;;22.90;99.90;;;;;;6217066;23;20231;-84
2023/09/12 09:49:07;;;;;;;46.45;37.38;;;22.90;99.90;;;;;;6245272;22;20015;-85
2023/09/12 09:51:42;;;;;;;50.30;39.00;;;22.90;99.90;;;;;;6216982;23;20063;-85
2023/09/12 09:54:08;;;;;;;47.10;36.42;;;22.80;99.90;;;;;;6217292;23;20016;-85
2023/09/12 09:56:49;;;;;;;48.47;35.97;;;22.80;99.90;;;;;;6217521;23;20015;-84
2023/09/12 09:59:17;;;;;;;44.53;34.10;;;22.70;99.90;;;;;;6244873;22;20051;-84
2023/09/12 10:01:45;;;;;;;57.88;39.25;;;23.00;99.90;;;;;;6243367;23;20074;-85
2023/09/12 10:04:15;;;;;;;49.35;37.88;;;23.00;99.90;;;;;;6242779;23;20016;-85
2023/09/12 10:06:44;;;;;;;45.92;36.65;;;23.10;99.90;;;;;;6242539;23;20062;-85
2023/09/12 10:09:13;;;;;;;44.00;36.08;;;23.10;99.90;;;;;;6243619;23;20012;-84
2023/09/12 10:11:48;;;;;;;48.75;36.00;;;23.10;99.90;;;;;;6218084;23;20463;-85
2023/09/12 10:14:18;;;;;;;43.78;34.83;;;23.00;99.90;;;;;;6219136;23;20012;-85
2023/09/12 10:16:49;;;;;;;43.30;34.00;;;23.00;99.90;;;;;;6243724;23;20048;-85
2023/09/12 10:19:19;;;;;;;43.65;35.15;;;23.10;99.90;;;;;;6244029;23;20466;-83
2023/09/12 10:22:20;;;;;;;50.25;36.33;;;23.10;99.90;;;;;;6243182;23;20016;-84
2023/09/12 10:24:46;;;;;;;46.75;36.30;;;23.20;99.90;;;;;;6269788;22;20083;-84
2023/09/12 10:27:13;;;;;;;45.17;36.05;;;23.10;99.90;;;;;;6219821;23;20066;-85
2023/09/12 10:29:40;;;;;;;46.40;32.67;;;23.10;99.90;;;;;;6246881;22;20079;-84
2023/09/12 10:32:05;;;;;;;51.35;38.63;;;23.20;99.90;;;;;;6243818;23;20012;-85
2023/09/12 10:34:36;;;;;;;45.80;35.25;;;23.20;99.90;;;;;;6219509;23;20300;-85
2023/09/12 10:37:06;;;;;;;44.50;36.00;;;23.30;99.90;;;;;;6269305;22;20060;-85
2023/09/12 10:39:35;;;;;;;45.08;35.75;;;23.40;99.90;;;;;;6220496;23;20043;-84
2023/09/12 10:42:04;;;;;;;45.95;36.60;;;23.80;99.90;;;;;;6218741;23;20455;-86
2023/09/12 10:44:53;;;;;;;47.45;37.33;;;23.90;99.90;;;;;;6219567;23;20020;-85
2023/09/12 10:47:20;;;;;;;44.95;36.30;;;23.90;99.90;;;;;;6243648;23;20020;-85
2023/09/12 10:49:49;;;;;;;41.60;33.30;;;24.00;99.90;;;;;;6219470;23;20012;-85
2023/09/12 10:52:27;;;;;;;49.25;36.50;;;24.10;99.90;;;;;;6246633;23;20035;-85
2023/09/12 10:54:53;;;;;;;41.88;34.22;;;24.10;99.90;;;;;;6220720;23;20488;-85
2023/09/12 10:57:19;;;;;;;46.38;36.92;;;24.10;99.90;;;;;;6221381;23;20331;-85
2023/09/12 11:00:10;;;;;;;43.97;35.97;;;24.10;99.90;;;;;;6246704;23;20084;-85
2023/09/12 11:02:43;;;;;;;43.45;35.65;;;24.10;99.90;;;;;;6246930;23;20016;-85
2023/09/12 11:05:27;;;;;;;40.72;32.30;;;24.10;99.90;;;;;;6246374;23;20019;-86
2023/09/12 11:08:00;;;;;;;41.20;32.05;;;24.20;99.90;;;;;;6222455;23;20331;-85
2023/09/12 11:10:26;;;;;;;;;;;24.10;99.90;;;;;;6221843;23;20347;-84
2023/09/12 11:12:54;;;;;;;42.17;34.33;;;24.10;99.90;;;;;;6245677;23;19916;-85
2023/09/12 11:15:22;;;;;;;45.70;33.25;;;24.20;99.90;;;;;;6220258;23;20024;-85
2023/09/12 11:17:49;;;;;;;38.75;32.88;;;24.30;99.90;;;;;;6246218;22;20084;-85
2023/09/12 11:20:17;;;;;;;36.55;28.52;;;24.40;99.90;;;;;;6248301;22;20016;-85
2023/09/12 11:22:47;;;;;;;39.63;32.45;;;24.50;99.90;;;;;;6246056;23;20358;-85
2023/09/12 11:25:18;;;;;;;39.60;31.08;;;24.60;99.90;;;;;;6247083;23;20016;-85
2023/09/12 11:27:53;;;;;;;40.85;31.08;;;24.80;99.90;;;;;;6246693;23;20016;-85
2023/09/12 11:30:20;;;;;;;36.30;31.83;;;24.80;99.90;;;;;;6246909;23;20016;-85
2023/09/12 11:32:50;;;;;;;41.08;32.50;;;24.80;99.90;;;;;;6248278;23;20394;-86
2023/09/12 11:35:22;;;;;;;35.25;29.80;;;25.20;99.90;;;;;;6249964;22;20099;-85
2023/09/12 11:37:49;;;;;;;34.83;29.30;;;25.40;99.90;;;;;;6248752;23;20118;-86
2023/09/12 11:40:16;;;;;;;33.45;27.60;;;25.60;99.90;;;;;;6222982;23;20008;-85
2023/09/12 11:42:46;;;;;;;28.85;24.30;;;25.80;99.90;;;;;;6222397;23;20044;-85
2023/09/12 11:45:12;;;;;;;29.50;25.50;;;25.90;99.90;;;;;;6247246;23;20023;-85
2023/09/12 11:47:45;;;;;;;28.63;24.88;;;26.00;99.90;;;;;;6249540;22;20019;-86
2023/09/12 11:50:30;;;;;;;33.78;26.67;;;26.30;99.90;;;;;;6222836;23;20050;-85
2023/09/12 11:53:07;;;;;;;28.60;22.23;;;26.20;99.90;;;;;;6249388;23;20024;-84
2023/09/12 11:55:59;;;;;;;26.83;22.67;;;26.30;99.90;;;;;;6248962;22;20235;-85
2023/09/12 11:58:27;;;;;;;27.63;23.95;;;26.20;99.90;;;;;;6223342;23;20094;-85
2023/09/12 12:00:54;;;;;;;25.85;23.08;;;26.40;99.90;;;;;;6249259;23;20016;-85
2023/09/12 12:03:23;;;;;;;20.30;16.80;;;26.40;99.90;;;;;;6248444;23;20015;-86
2023/09/12 12:05:50;;;;;;;22.50;19.33;;;26.50;99.90;;;;;;6248681;23;20515;-86
2023/09/12 12:08:17;;;;;;;23.45;19.13;;;26.70;99.90;;;;;;6224070;23;20004;-85
2023/09/12 12:10:43;;;;;;;22.45;20.05;;;26.80;99.90;;;;;;6223608;23;20051;-85
2023/09/12 12:13:16;;;;;;;25.48;21.38;;;26.70;99.90;;;;;;6222852;23;20036;-85
2023/09/12 12:15:42;;;;;;;29.33;24.88;;;26.80;99.90;;;;;;6222254;23;20070;-85
2023/09/12 12:18:07;;;;;;;24.05;20.38;;;26.80;99.90;;;;;;6246046;23;20009;-86
2023/09/12 12:20:36;;;;;;;24.48;20.40;;;26.70;99.90;;;;;;6221194;23;20048;-85
2023/09/12 12:23:05;;;;;;;28.58;23.77;;;26.70;99.90;;;;;;6246320;23;20051;-85
2023/09/12 12:25:35;;;;;;;25.10;22.58;;;26.60;99.90;;;;;;6222641;23;20103;-84
2023/09/12 12:28:02;;;;;;;24.25;20.60;;;26.30;99.90;;;;;;6246999;23;20070;-85
2023/09/12 12:30:32;;;;;;;18.65;16.58;;;26.00;99.90;;;;;;6247501;23;20012;-85